sensor_id;sensor_type;location;lat;lon;timestamp;pressure;altitude;pressure_sealevel;temperature;humidity
25947;BME280;13745;51.470;9.894;2022-12-16T00:00:40;98803.97;;;-6.03;52.09
25947;BME280;13745;51.470;9.894;2022-12-16T00:03:26;98797.31;;;-6.05;52.16
25947;BME280;13745;51.470;9.894;2022-12-16T00:06:15;98804.41;;;-6.12;52.20
25947;BME280;13745;51.470;9.894;2022-12-16T00:09:02;98809.84;;;-6.14;52.16
25947;BME280;13745;51.470;9.894;2022-12-16T00:11:48;98817.38;;;-6.11;51.97
25947;BME280;13745;51.470;9.894;2022-12-16T00:14:33;98805.81;;;-6.10;51.64
25947;BME280;13745;51.470;9.894;2022-12-16T00:17:19;98800.97;;;-6.13;52.10
25947;BME280;13745;51.470;9.894;2022-12-16T00:20:06;98805.00;;;-6.17;51.72
25947;BME280;13745;51.470;9.894;2022-12-16T00:22:52;98811.28;;;-6.18;52.52
25947;BME280;13745;51.470;9.894;2022-12-16T00:25:40;98807.63;;;-6.17;52.07
25947;BME280;13745;51.470;9.894;2022-12-16T00:28:25;98808.06;;;-6.20;52.08
25947;BME280;13745;51.470;9.894;2022-12-16T00:31:11;98807.88;;;-6.24;52.12
25947;BME280;13745;51.470;9.894;2022-12-16T00:33:57;98815.97;;;-6.26;52.15
25947;BME280;13745;51.470;9.894;2022-12-16T00:36:43;98807.06;;;-6.31;52.00
25947;BME280;13745;51.470;9.894;2022-12-16T00:39:29;98813.34;;;-6.32;52.17
25947;BME280;13745;51.470;9.894;2022-12-16T00:42:16;98815.56;;;-6.29;52.22
25947;BME280;13745;51.470;9.894;2022-12-16T00:45:02;98805.84;;;-6.29;52.01
25947;BME280;13745;51.470;9.894;2022-12-16T00:47:48;98810.28;;;-6.29;52.16
25947;BME280;13745;51.470;9.894;2022-12-16T00:50:34;98805.84;;;-6.35;51.65
25947;BME280;13745;51.470;9.894;2022-12-16T00:53:21;98802.19;;;-6.41;52.11
25947;BME280;13745;51.470;9.894;2022-12-16T00:56:08;98796.94;;;-6.47;52.14
25947;BME280;13745;51.470;9.894;2022-12-16T00:58:56;98799.38;;;-6.52;52.05
25947;BME280;13745;51.470;9.894;2022-12-16T01:01:42;98805.44;;;-6.51;52.21
25947;BME280;13745;51.470;9.894;2022-12-16T01:04:27;98802.63;;;-6.56;52.00
25947;BME280;13745;51.470;9.894;2022-12-16T01:07:13;98807.47;;;-6.60;52.15
25947;BME280;13745;51.470;9.894;2022-12-16T01:09:59;98805.44;;;-6.58;52.24
25947;BME280;13745;51.470;9.894;2022-12-16T01:12:45;98802.63;;;-6.63;52.29
25947;BME280;13745;51.470;9.894;2022-12-16T01:15:32;98797.38;;;-6.63;52.11
25947;BME280;13745;51.470;9.894;2022-12-16T01:18:18;98809.06;;;-6.65;52.31
25947;BME280;13745;51.470;9.894;2022-12-16T01:21:06;98802.63;;;-6.63;52.16
25947;BME280;13745;51.470;9.894;2022-12-16T01:23:52;98807.47;;;-6.60;52.23
25947;BME280;13745;51.470;9.894;2022-12-16T01:26:37;98809.09;;;-6.59;52.02
25947;BME280;13745;51.470;9.894;2022-12-16T01:29:23;98810.72;;;-6.58;52.09
25947;BME280;13745;51.470;9.894;2022-12-16T01:32:12;98816.56;;;-6.56;52.04
25947;BME280;13745;51.470;9.894;2022-12-16T01:34:57;98819.19;;;-6.56;52.06
25947;BME280;13745;51.470;9.894;2022-12-16T01:37:44;98818.19;;;-6.61;52.30
25947;BME280;13745;51.470;9.894;2022-12-16T01:40:29;98813.16;;;-6.63;52.28
25947;BME280;13745;51.470;9.894;2022-12-16T01:43:15;98815.56;;;-6.68;52.57
25947;BME280;13745;51.470;9.894;2022-12-16T01:46:05;98817.19;;;-6.73;52.20
25947;BME280;13745;51.470;9.894;2022-12-16T01:48:57;98821.63;;;-6.73;52.40
25947;BME280;13745;51.470;9.894;2022-12-16T01:51:43;98819.00;;;-6.73;52.43
25947;BME280;13745;51.470;9.894;2022-12-16T01:54:34;98814.75;;;-6.74;52.33
25947;BME280;13745;51.470;9.894;2022-12-16T01:57:25;98815.97;;;-6.70;52.53
25947;BME280;13745;51.470;9.894;2022-12-16T02:00:12;98818.38;;;-6.69;52.11
25947;BME280;13745;51.470;9.894;2022-12-16T02:02:59;98822.84;;;-6.69;52.24
25947;BME280;13745;51.470;9.894;2022-12-16T02:05:46;98824.63;;;-6.76;52.44
25947;BME280;13745;51.470;9.894;2022-12-16T02:08:32;98819.81;;;-6.73;52.41
25947;BME280;13745;51.470;9.894;2022-12-16T02:11:29;98817.56;;;-6.69;52.36
25947;BME280;13745;51.470;9.894;2022-12-16T02:14:30;98813.75;;;-6.73;52.41
25947;BME280;13745;51.470;9.894;2022-12-16T02:17:24;98813.13;;;-6.75;52.50
25947;BME280;13745;51.470;9.894;2022-12-16T02:20:29;98817.59;;;-6.76;52.40
25947;BME280;13745;51.470;9.894;2022-12-16T02:23:38;98813.13;;;-6.82;52.29
25947;BME280;13745;51.470;9.894;2022-12-16T02:26:49;98817.97;;;-6.79;52.27
25947;BME280;13745;51.470;9.894;2022-12-16T02:29:49;98821.00;;;-6.82;52.23
25947;BME280;13745;51.470;9.894;2022-12-16T02:32:52;98816.97;;;-6.84;52.53
25947;BME280;13745;51.470;9.894;2022-12-16T02:35:49;98808.06;;;-6.83;52.25
25947;BME280;13745;51.470;9.894;2022-12-16T02:38:40;98807.03;;;-6.82;52.26
25947;BME280;13745;51.470;9.894;2022-12-16T02:41:36;98809.88;;;-6.84;52.25
25947;BME280;13745;51.470;9.894;2022-12-16T02:44:32;98815.94;;;-6.83;52.39
25947;BME280;13745;51.470;9.894;2022-12-16T02:47:19;98818.78;;;-6.85;52.23
25947;BME280;13745;51.470;9.894;2022-12-16T02:50:15;98807.47;;;-6.85;52.31
25947;BME280;13745;51.470;9.894;2022-12-16T02:53:01;98802.19;;;-6.85;52.48
25947;BME280;13745;51.470;9.894;2022-12-16T02:55:54;98803.22;;;-6.86;52.51
25947;BME280;13745;51.470;9.894;2022-12-16T02:58:49;98803.81;;;-6.84;52.40
25947;BME280;13745;51.470;9.894;2022-12-16T03:01:43;98808.66;;;-6.81;52.51
25947;BME280;13745;51.470;9.894;2022-12-16T03:04:36;98814.34;;;-6.84;52.29
25947;BME280;13745;51.470;9.894;2022-12-16T03:07:25;98818.38;;;-6.88;52.43
25947;BME280;13745;51.470;9.894;2022-12-16T03:10:16;98814.75;;;-6.87;52.30
25947;BME280;13745;51.470;9.894;2022-12-16T03:13:03;98819.59;;;-6.84;52.20
25947;BME280;13745;51.470;9.894;2022-12-16T03:15:52;98805.03;;;-6.87;52.26
25947;BME280;13745;51.470;9.894;2022-12-16T03:18:42;98806.41;;;-6.91;52.05
25947;BME280;13745;51.470;9.894;2022-12-16T03:21:31;98798.13;;;-6.94;52.26
25947;BME280;13745;51.470;9.894;2022-12-16T03:24:20;98797.31;;;-6.94;52.09
25947;BME280;13745;51.470;9.894;2022-12-16T03:27:10;98798.13;;;-6.94;52.36
25947;BME280;13745;51.470;9.894;2022-12-16T03:30:02;98808.66;;;-6.94;52.48
25947;BME280;13745;51.470;9.894;2022-12-16T03:32:53;98815.09;;;-7.03;52.63
25947;BME280;13745;51.470;9.894;2022-12-16T03:35:43;98805.38;;;-7.09;52.29
25947;BME280;13745;51.470;9.894;2022-12-16T03:38:31;98804.59;;;-7.09;52.39
25947;BME280;13745;51.470;9.894;2022-12-16T03:41:19;98802.56;;;-7.07;52.43
25947;BME280;13745;51.470;9.894;2022-12-16T03:44:06;98803.97;;;-7.05;52.72
25947;BME280;13745;51.470;9.894;2022-12-16T03:46:52;98800.75;;;-7.07;52.49
25947;BME280;13745;51.470;9.894;2022-12-16T03:49:38;98797.31;;;-7.13;52.17
25947;BME280;13745;51.470;9.894;2022-12-16T03:52:24;98802.13;;;-7.17;52.57
25947;BME280;13745;51.470;9.894;2022-12-16T03:55:10;98809.19;;;-7.17;52.56
25947;BME280;13745;51.470;9.894;2022-12-16T03:57:57;98807.41;;;-7.11;52.55
25947;BME280;13745;51.470;9.894;2022-12-16T04:00:43;98811.47;;;-7.08;52.59
25947;BME280;13745;51.470;9.894;2022-12-16T04:03:28;98811.47;;;-7.08;52.75
25947;BME280;13745;51.470;9.894;2022-12-16T04:06:15;98814.28;;;-7.10;52.51
25947;BME280;13745;51.470;9.894;2022-12-16T04:09:02;98817.94;;;-7.11;52.39
25947;BME280;13745;51.470;9.894;2022-12-16T04:11:48;98830.47;;;-7.13;52.10
25947;BME280;13745;51.470;9.894;2022-12-16T04:14:52;98832.84;;;-7.17;52.14
25947;BME280;13745;51.470;9.894;2022-12-16T04:17:56;98838.91;;;-7.23;52.94
25947;BME280;13745;51.470;9.894;2022-12-16T04:21:00;98835.47;;;-7.24;52.88
25947;BME280;13745;51.470;9.894;2022-12-16T04:24:07;98833.63;;;-7.30;52.58
25947;BME280;13745;51.470;9.894;2022-12-16T04:27:04;98841.69;;;-7.31;52.93
25947;BME280;13745;51.470;9.894;2022-12-16T04:30:10;98838.06;;;-7.30;52.64
25947;BME280;13745;51.470;9.894;2022-12-16T04:33:08;98833.22;;;-7.33;52.22
25947;BME280;13745;51.470;9.894;2022-12-16T04:36:12;98836.84;;;-7.34;52.73
25947;BME280;13745;51.470;9.894;2022-12-16T04:39:20;98838.25;;;-7.38;51.99
25947;BME280;13745;51.470;9.894;2022-12-16T04:42:24;98840.06;;;-7.38;52.27
25947;BME280;13745;51.470;9.894;2022-12-16T04:45:29;98833.19;;;-7.39;52.76
25947;BME280;13745;51.470;9.894;2022-12-16T04:48:33;98841.88;;;-7.39;52.68
25947;BME280;13745;51.470;9.894;2022-12-16T04:51:36;98838.22;;;-7.44;52.27
25947;BME280;13745;51.470;9.894;2022-12-16T04:54:36;98841.44;;;-7.49;52.61
25947;BME280;13745;51.470;9.894;2022-12-16T04:57:40;98841.19;;;-7.54;52.36
25947;BME280;13745;51.470;9.894;2022-12-16T05:00:45;98848.47;;;-7.56;52.29
25947;BME280;13745;51.470;9.894;2022-12-16T05:03:48;98847.66;;;-7.56;52.23
25947;BME280;13745;51.470;9.894;2022-12-16T05:07:06;98843.81;;;-7.54;52.80
25947;BME280;13745;51.470;9.894;2022-12-16T05:10:09;98842.81;;;-7.53;52.67
25947;BME280;13745;51.470;9.894;2022-12-16T05:13:13;98854.94;;;-7.52;52.51
25947;BME280;13745;51.470;9.894;2022-12-16T05:16:17;98850.69;;;-7.53;52.57
25947;BME280;13745;51.470;9.894;2022-12-16T05:19:21;98862.59;;;-7.57;52.10
25947;BME280;13745;51.470;9.894;2022-12-16T05:22:24;98867.25;;;-7.58;52.08
25947;BME280;13745;51.470;9.894;2022-12-16T05:25:27;98862.16;;;-7.66;52.31
25947;BME280;13745;51.470;9.894;2022-12-16T05:28:31;98874.66;;;-7.68;52.11
25947;BME280;13745;51.470;9.894;2022-12-16T05:31:36;98874.25;;;-7.72;51.91
25947;BME280;13745;51.470;9.894;2022-12-16T05:34:39;98879.50;;;-7.72;52.21
25947;BME280;13745;51.470;9.894;2022-12-16T05:37:42;98893.44;;;-7.71;52.19
25947;BME280;13745;51.470;9.894;2022-12-16T05:40:46;98896.25;;;-7.73;52.59
25947;BME280;13745;51.470;9.894;2022-12-16T05:43:49;98902.47;;;-7.80;52.11
25947;BME280;13745;51.470;9.894;2022-12-16T05:46:54;98900.03;;;-7.81;52.54
25947;BME280;13745;51.470;9.894;2022-12-16T05:49:57;98907.47;;;-7.85;52.50
25947;BME280;13745;51.470;9.894;2022-12-16T05:53:01;98907.06;;;-7.88;52.10
25947;BME280;13745;51.470;9.894;2022-12-16T05:56:05;98915.75;;;-7.88;52.29
25947;BME280;13745;51.470;9.894;2022-12-16T05:59:08;98921.63;;;-7.86;53.04
25947;BME280;13745;51.470;9.894;2022-12-16T06:02:13;98914.56;;;-7.85;53.00
25947;BME280;13745;51.470;9.894;2022-12-16T06:05:16;98920.59;;;-7.85;52.40
25947;BME280;13745;51.470;9.894;2022-12-16T06:08:20;98924.25;;;-7.86;52.70
25947;BME280;13745;51.470;9.894;2022-12-16T06:11:23;98926.88;;;-7.86;52.23
25947;BME280;13745;51.470;9.894;2022-12-16T06:14:26;98929.03;;;-7.89;52.27
25947;BME280;13745;51.470;9.894;2022-12-16T06:17:31;98934.28;;;-7.89;51.89
25947;BME280;13745;51.470;9.894;2022-12-16T06:20:35;98942.00;;;-7.88;52.67
25947;BME280;13745;51.470;9.894;2022-12-16T06:23:38;98941.59;;;-7.85;52.58
25947;BME280;13745;51.470;9.894;2022-12-16T06:26:42;98940.00;;;-7.86;51.89
25947;BME280;13745;51.470;9.894;2022-12-16T06:29:45;98947.25;;;-7.88;52.59
25947;BME280;13745;51.470;9.894;2022-12-16T06:32:50;98944.75;;;-7.96;52.05
25947;BME280;13745;51.470;9.894;2022-12-16T06:35:53;98953.63;;;-7.97;52.41
25947;BME280;13745;51.470;9.894;2022-12-16T06:38:53;98954.88;;;-7.93;52.57
25947;BME280;13745;51.470;9.894;2022-12-16T06:41:56;98966.75;;;-7.97;52.81
25947;BME280;13745;51.470;9.894;2022-12-16T06:44:59;98965.13;;;-7.98;52.47
25947;BME280;13745;51.470;9.894;2022-12-16T06:48:04;98983.50;;;-7.98;52.81
25947;BME280;13745;51.470;9.894;2022-12-16T06:51:08;98983.88;;;-8.01;52.50
25947;BME280;13745;51.470;9.894;2022-12-16T06:54:11;98984.28;;;-8.03;52.45
25947;BME280;13745;51.470;9.894;2022-12-16T06:57:19;98994.16;;;-8.05;52.90
25947;BME280;13745;51.470;9.894;2022-12-16T07:00:23;98998.22;;;-8.03;53.23
25947;BME280;13745;51.470;9.894;2022-12-16T07:03:28;99004.06;;;-8.01;52.84
25947;BME280;13745;51.470;9.894;2022-12-16T07:06:31;99007.50;;;-8.01;52.51
25947;BME280;13745;51.470;9.894;2022-12-16T07:09:34;99013.38;;;-7.99;52.31
25947;BME280;13745;51.470;9.894;2022-12-16T07:12:38;99021.44;;;-8.00;52.33
25947;BME280;13745;51.470;9.894;2022-12-16T07:15:37;99031.97;;;-7.94;52.81
25947;BME280;13745;51.470;9.894;2022-12-16T07:18:42;99034.38;;;-7.99;52.75
25947;BME280;13745;51.470;9.894;2022-12-16T07:21:46;99044.47;;;-7.96;52.32
25947;BME280;13745;51.470;9.894;2022-12-16T07:24:49;99047.72;;;-7.94;51.91
25947;BME280;13745;51.470;9.894;2022-12-16T07:27:52;99058.59;;;-7.97;52.61
25947;BME280;13745;51.470;9.894;2022-12-16T07:30:56;99062.22;;;-7.98;53.04
25947;BME280;13745;51.470;9.894;2022-12-16T07:34:00;99069.34;;;-7.92;52.64
25947;BME280;13745;51.470;9.894;2022-12-16T07:37:04;99084.53;;;-7.87;53.03
25947;BME280;13745;51.470;9.894;2022-12-16T07:40:08;99082.53;;;-7.85;53.00
25947;BME280;13745;51.470;9.894;2022-12-16T07:43:12;99078.28;;;-7.86;53.02
25947;BME280;13745;51.470;9.894;2022-12-16T07:46:15;99083.75;;;-7.88;52.46
25947;BME280;13745;51.470;9.894;2022-12-16T07:49:20;99096.09;;;-7.82;53.05
25947;BME280;13745;51.470;9.894;2022-12-16T07:52:24;99103.47;;;-7.71;52.84
25947;BME280;13745;51.470;9.894;2022-12-16T07:55:27;99106.53;;;-7.68;53.12
25947;BME280;13745;51.470;9.894;2022-12-16T07:58:30;99109.84;;;-7.59;52.83
25947;BME280;13745;51.470;9.894;2022-12-16T08:01:34;99118.59;;;-7.53;52.27
25947;BME280;13745;51.470;9.894;2022-12-16T08:04:38;99128.34;;;-7.47;52.53
25947;BME280;13745;51.470;9.894;2022-12-16T08:07:42;99125.97;;;-7.42;52.18
25947;BME280;13745;51.470;9.894;2022-12-16T08:10:46;99133.72;;;-7.34;52.46
25947;BME280;13745;51.470;9.894;2022-12-16T08:13:49;99136.44;;;-7.21;52.05
25947;BME280;13745;51.470;9.894;2022-12-16T08:16:52;99143.81;;;-7.11;51.97
25947;BME280;13745;51.470;9.894;2022-12-16T08:19:57;99145.28;;;-7.02;52.10
25947;BME280;13745;51.470;9.894;2022-12-16T08:23:00;99138.66;;;-6.98;51.81
25947;BME280;13745;51.470;9.894;2022-12-16T08:26:04;99142.75;;;-6.89;52.11
25947;BME280;13745;51.470;9.894;2022-12-16T08:29:13;99148.06;;;-6.83;52.20
25947;BME280;13745;51.470;9.894;2022-12-16T08:32:16;99154.59;;;-6.72;51.76
25947;BME280;13745;51.470;9.894;2022-12-16T08:35:21;99163.13;;;-6.70;51.86
25947;BME280;13745;51.470;9.894;2022-12-16T08:38:24;99157.47;;;-6.68;51.84
25947;BME280;13745;51.470;9.894;2022-12-16T08:41:42;99163.59;;;-6.61;51.98
25947;BME280;13745;51.470;9.894;2022-12-16T08:44:45;99171.75;;;-6.49;51.89
25947;BME280;13745;51.470;9.894;2022-12-16T08:47:48;99173.88;;;-6.32;51.63
25947;BME280;13745;51.470;9.894;2022-12-16T08:50:54;99177.59;;;-6.14;51.88
25947;BME280;13745;51.470;9.894;2022-12-16T08:53:57;99174.84;;;-6.00;51.39
25947;BME280;13745;51.470;9.894;2022-12-16T08:57:00;99180.56;;;-5.78;51.15
25947;BME280;13745;51.470;9.894;2022-12-16T09:00:06;99177.81;;;-5.51;51.08
25947;BME280;13745;51.470;9.894;2022-12-16T09:03:09;99192.44;;;-5.16;51.17
25947;BME280;13745;51.470;9.894;2022-12-16T09:06:14;99189.59;;;-4.77;50.75
25947;BME280;13745;51.470;9.894;2022-12-16T09:09:18;99195.47;;;-4.43;50.28
25947;BME280;13745;51.470;9.894;2022-12-16T09:12:35;99186.75;;;-4.50;49.89
25947;BME280;13745;51.470;9.894;2022-12-16T09:15:39;99196.13;;;-4.60;50.73
25947;BME280;13745;51.470;9.894;2022-12-16T09:18:42;99191.03;;;-4.62;50.29
25947;BME280;13745;51.470;9.894;2022-12-16T09:21:52;99194.06;;;-4.58;50.77
25947;BME280;13745;51.470;9.894;2022-12-16T09:24:55;99199.75;;;-4.48;50.33
25947;BME280;13745;51.470;9.894;2022-12-16T09:27:59;99213.47;;;-4.15;50.18
25947;BME280;13745;51.470;9.894;2022-12-16T09:31:02;99205.41;;;-3.70;49.89
25947;BME280;13745;51.470;9.894;2022-12-16T09:34:05;99211.69;;;-2.68;48.73
25947;BME280;13745;51.470;9.894;2022-12-16T09:37:10;99214.84;;;-1.12;46.39
25947;BME280;13745;51.470;9.894;2022-12-16T09:40:15;99217.91;;;-0.97;46.06
25947;BME280;13745;51.470;9.894;2022-12-16T09:43:34;99226.03;;;-1.10;47.48
25947;BME280;13745;51.470;9.894;2022-12-16T09:46:48;99228.72;;;-0.70;47.21
25947;BME280;13745;51.470;9.894;2022-12-16T09:49:54;99229.69;;;-0.31;47.04
25947;BME280;13745;51.470;9.894;2022-12-16T09:53:00;99229.47;;;-0.18;47.51
25947;BME280;13745;51.470;9.894;2022-12-16T09:56:12;99232.69;;;0.06;47.92
25947;BME280;13745;51.470;9.894;2022-12-16T09:59:21;99234.06;;;0.20;47.84
25947;BME280;13745;51.470;9.894;2022-12-16T10:02:27;99233.97;;;1.04;46.52
25947;BME280;13745;51.470;9.894;2022-12-16T10:05:35;99230.78;;;3.41;42.80
25947;BME280;13745;51.470;9.894;2022-12-16T10:08:47;99219.59;;;5.16;40.29
25947;BME280;13745;51.470;9.894;2022-12-16T10:12:00;99227.88;;;5.05;40.57
25947;BME280;13745;51.470;9.894;2022-12-16T10:15:23;99228.41;;;6.83;38.95
25947;BME280;13745;51.470;9.894;2022-12-16T10:18:38;99236.81;;;8.93;37.51
25947;BME280;13745;51.470;9.894;2022-12-16T10:21:46;99243.69;;;11.93;34.70
25947;BME280;13745;51.470;9.894;2022-12-16T10:24:56;99237.31;;;14.43;32.29
25947;BME280;13745;51.470;9.894;2022-12-16T10:28:13;99232.94;;;15.97;30.67
25947;BME280;13745;51.470;9.894;2022-12-16T10:31:18;99233.69;;;16.90;29.99
25947;BME280;13745;51.470;9.894;2022-12-16T10:34:24;99231.41;;;17.94;30.04
25947;BME280;13745;51.470;9.894;2022-12-16T10:37:32;99233.91;;;18.91;28.69
25947;BME280;13745;51.470;9.894;2022-12-16T10:40:38;99229.31;;;19.26;28.32
25947;BME280;13745;51.470;9.894;2022-12-16T10:43:43;99232.56;;;18.32;29.17
25947;BME280;13745;51.470;9.894;2022-12-16T10:46:48;99235.97;;;16.88;31.04
25947;BME280;13745;51.470;9.894;2022-12-16T10:49:54;99235.50;;;16.74;31.50
25947;BME280;13745;51.470;9.894;2022-12-16T10:52:59;99242.25;;;17.32;30.66
25947;BME280;13745;51.470;9.894;2022-12-16T10:56:17;99238.81;;;17.23;30.89
25947;BME280;13745;51.470;9.894;2022-12-16T10:59:33;99231.56;;;15.43;32.47
25947;BME280;13745;51.470;9.894;2022-12-16T11:02:37;99245.22;;;14.90;32.98
25947;BME280;13745;51.470;9.894;2022-12-16T11:05:40;99249.31;;;15.49;32.04
25947;BME280;13745;51.470;9.894;2022-12-16T11:08:44;99252.16;;;13.88;33.74
25947;BME280;13745;51.470;9.894;2022-12-16T11:11:49;99248.69;;;12.43;34.77
25947;BME280;13745;51.470;9.894;2022-12-16T11:14:52;99260.63;;;11.51;35.28
25947;BME280;13745;51.470;9.894;2022-12-16T11:18:10;99262.03;;;10.51;35.78
25947;BME280;13745;51.470;9.894;2022-12-16T11:21:16;99250.69;;;10.36;36.29
25947;BME280;13745;51.470;9.894;2022-12-16T11:24:19;99253.63;;;10.21;36.07
25947;BME280;13745;51.470;9.894;2022-12-16T11:27:25;99250.38;;;10.69;35.56
25947;BME280;13745;51.470;9.894;2022-12-16T11:30:29;99248.31;;;12.14;33.28
25947;BME280;13745;51.470;9.894;2022-12-16T11:33:32;99259.44;;;11.57;34.74
25947;BME280;13745;51.470;9.894;2022-12-16T11:36:37;99253.94;;;12.39;34.05
25947;BME280;13745;51.470;9.894;2022-12-16T11:39:41;99259.50;;;13.62;32.83
25947;BME280;13745;51.470;9.894;2022-12-16T11:42:45;99259.91;;;13.31;33.22
25947;BME280;13745;51.470;9.894;2022-12-16T11:45:50;99261.75;;;12.62;34.28
25947;BME280;13745;51.470;9.894;2022-12-16T11:48:57;99263.63;;;12.32;34.48
25947;BME280;13745;51.470;9.894;2022-12-16T11:52:04;99260.78;;;12.37;34.63
25947;BME280;13745;51.470;9.894;2022-12-16T11:55:16;99264.47;;;12.84;33.75
25947;BME280;13745;51.470;9.894;2022-12-16T11:58:25;99265.31;;;12.41;34.67
25947;BME280;13745;51.470;9.894;2022-12-16T12:01:32;99268.94;;;13.65;34.51
25947;BME280;13745;51.470;9.894;2022-12-16T12:04:36;99258.06;;;15.91;31.92
25947;BME280;13745;51.470;9.894;2022-12-16T12:07:43;99261.63;;;17.27;30.42
25947;BME280;13745;51.470;9.894;2022-12-16T12:11:01;99261.91;;;15.90;31.83
25947;BME280;13745;51.470;9.894;2022-12-16T12:14:14;99263.28;;;16.24;31.92
25947;BME280;13745;51.470;9.894;2022-12-16T12:17:24;99259.25;;;17.72;30.19
25947;BME280;13745;51.470;9.894;2022-12-16T12:20:40;99269.50;;;18.49;29.17
25947;BME280;13745;51.470;9.894;2022-12-16T12:23:52;99268.59;;;19.41;28.09
25947;BME280;13745;51.470;9.894;2022-12-16T12:27:04;99270.34;;;19.95;27.74
25947;BME280;13745;51.470;9.894;2022-12-16T12:30:13;99261.06;;;19.69;27.98
25947;BME280;13745;51.470;9.894;2022-12-16T12:33:26;99269.13;;;18.89;28.14
25947;BME280;13745;51.470;9.894;2022-12-16T12:36:37;99266.22;;;18.05;28.74
25947;BME280;13745;51.470;9.894;2022-12-16T12:39:46;99271.22;;;17.33;29.62
25947;BME280;13745;51.470;9.894;2022-12-16T12:42:54;99274.41;;;16.59;29.82
25947;BME280;13745;51.470;9.894;2022-12-16T12:46:03;99281.19;;;15.93;29.83
25947;BME280;13745;51.470;9.894;2022-12-16T12:49:14;99281.84;;;15.25;30.45
25947;BME280;13745;51.470;9.894;2022-12-16T12:52:32;99276.59;;;14.42;31.13
25947;BME280;13745;51.470;9.894;2022-12-16T12:55:43;99277.78;;;13.78;31.76
25947;BME280;13745;51.470;9.894;2022-12-16T12:58:48;99278.28;;;13.34;32.03
25947;BME280;13745;51.470;9.894;2022-12-16T13:01:55;99279.88;;;12.97;32.29
25947;BME280;13745;51.470;9.894;2022-12-16T13:05:10;99291.66;;;12.84;32.17
25947;BME280;13745;51.470;9.894;2022-12-16T13:08:43;99292.94;;;12.65;32.10
25947;BME280;13745;51.470;9.894;2022-12-16T13:12:25;99285.41;;;12.62;32.13
25947;BME280;13745;51.470;9.894;2022-12-16T13:15:33;99282.16;;;12.73;31.94
25947;BME280;13745;51.470;9.894;2022-12-16T13:18:38;99293.16;;;12.68;31.75
25947;BME280;13745;51.470;9.894;2022-12-16T13:21:53;99291.13;;;12.60;31.81
25947;BME280;13745;51.470;9.894;2022-12-16T13:24:58;99289.91;;;12.45;31.42
25947;BME280;13745;51.470;9.894;2022-12-16T13:28:02;99292.66;;;12.10;31.48
25947;BME280;13745;51.470;9.894;2022-12-16T13:31:07;99298.00;;;11.67;31.75
25947;BME280;13745;51.470;9.894;2022-12-16T13:34:24;99306.00;;;11.19;32.24
25947;BME280;13745;51.470;9.894;2022-12-16T13:37:30;99300.06;;;10.59;32.90
25947;BME280;13745;51.470;9.894;2022-12-16T13:40:47;99294.97;;;9.90;33.13
25947;BME280;13745;51.470;9.894;2022-12-16T13:43:52;99297.03;;;9.16;33.83
25947;BME280;13745;51.470;9.894;2022-12-16T13:46:57;99299.31;;;8.49;34.37
25947;BME280;13745;51.470;9.894;2022-12-16T13:50:33;99304.50;;;7.60;35.13
25947;BME280;13745;51.470;9.894;2022-12-16T13:53:40;99309.38;;;6.91;35.57
25947;BME280;13745;51.470;9.894;2022-12-16T13:56:47;99306.22;;;6.21;36.42
25947;BME280;13745;51.470;9.894;2022-12-16T13:59:52;99318.47;;;5.58;37.02
25947;BME280;13745;51.470;9.894;2022-12-16T14:02:57;99312.91;;;5.04;37.34
25947;BME280;13745;51.470;9.894;2022-12-16T14:06:08;99322.81;;;4.58;37.89
25947;BME280;13745;51.470;9.894;2022-12-16T14:09:29;99328.84;;;4.08;38.58
25947;BME280;13745;51.470;9.894;2022-12-16T14:12:45;99334.25;;;3.61;38.87
25947;BME280;13745;51.470;9.894;2022-12-16T14:15:57;99344.81;;;3.26;39.00
25947;BME280;13745;51.470;9.894;2022-12-16T14:19:12;99349.72;;;2.91;39.38
25947;BME280;13745;51.470;9.894;2022-12-16T14:22:29;99356.47;;;2.62;39.58
25947;BME280;13745;51.470;9.894;2022-12-16T14:25:36;99354.47;;;2.36;39.73
25947;BME280;13745;51.470;9.894;2022-12-16T14:28:43;99359.91;;;2.09;40.07
25947;BME280;13745;51.470;9.894;2022-12-16T14:31:47;99376.44;;;1.78;40.26
25947;BME280;13745;51.470;9.894;2022-12-16T14:34:51;99374.34;;;1.53;40.30
25947;BME280;13745;51.470;9.894;2022-12-16T14:38:20;99379.44;;;1.27;40.55
25947;BME280;13745;51.470;9.894;2022-12-16T14:41:24;99377.84;;;1.04;40.69
25947;BME280;13745;51.470;9.894;2022-12-16T14:44:34;99385.16;;;0.86;41.04
25947;BME280;13745;51.470;9.894;2022-12-16T14:47:39;99383.56;;;0.62;41.00
25947;BME280;13745;51.470;9.894;2022-12-16T14:50:45;99400.22;;;0.46;41.34
25947;BME280;13745;51.470;9.894;2022-12-16T14:54:12;99393.84;;;0.25;41.90
25947;BME280;13745;51.470;9.894;2022-12-16T14:57:19;99399.59;;;0.11;41.67
25947;BME280;13745;51.470;9.894;2022-12-16T15:00:23;99399.00;;;-0.02;41.67
25947;BME280;13745;51.470;9.894;2022-12-16T15:03:31;99409.25;;;-0.17;42.16
25947;BME280;13745;51.470;9.894;2022-12-16T15:06:39;99406.06;;;-0.37;42.42
25947;BME280;13745;51.470;9.894;2022-12-16T15:09:46;99409.72;;;-0.49;42.64
25947;BME280;13745;51.470;9.894;2022-12-16T15:13:00;99415.94;;;-0.72;43.35
25947;BME280;13745;51.470;9.894;2022-12-16T15:16:14;99422.22;;;-0.85;43.10
25947;BME280;13745;51.470;9.894;2022-12-16T15:19:20;99416.03;;;-0.96;43.54
25947;BME280;13745;51.470;9.894;2022-12-16T15:22:25;99431.88;;;-1.08;43.78
25947;BME280;13745;51.470;9.894;2022-12-16T15:25:30;99433.34;;;-1.12;43.95
25947;BME280;13745;51.470;9.894;2022-12-16T15:28:38;99434.22;;;-1.17;43.85
25947;BME280;13745;51.470;9.894;2022-12-16T15:31:42;99442.25;;;-1.24;43.96
25947;BME280;13745;51.470;9.894;2022-12-16T15:34:46;99449.09;;;-1.34;44.33
25947;BME280;13745;51.470;9.894;2022-12-16T15:37:50;99449.34;;;-1.42;43.99
25947;BME280;13745;51.470;9.894;2022-12-16T15:40:55;99459.47;;;-1.50;44.08
25947;BME280;13745;51.470;9.894;2022-12-16T15:43:54;99453.38;;;-1.57;44.31
25947;BME280;13745;51.470;9.894;2022-12-16T15:46:58;99461.44;;;-1.70;44.53
25947;BME280;13745;51.470;9.894;2022-12-16T15:50:02;99464.34;;;-1.78;44.76
25947;BME280;13745;51.470;9.894;2022-12-16T15:53:15;99466.84;;;-1.82;44.86
25947;BME280;13745;51.470;9.894;2022-12-16T15:56:22;99470.34;;;-1.88;44.90
25947;BME280;13745;51.470;9.894;2022-12-16T15:59:28;99475.47;;;-1.93;45.14
25947;BME280;13745;51.470;9.894;2022-12-16T16:02:32;99476.34;;;-1.99;45.21
25947;BME280;13745;51.470;9.894;2022-12-16T16:05:36;99478.00;;;-2.04;45.28